sensor_id;sensor_type;location;lat;lon;timestamp;temperature;humidity
3727;DHT22;1879;45.876;12.300;2022-10-15T00:02:11;15.30;99.90
3727;DHT22;1879;45.876;12.300;2022-10-15T00:04:38;15.30;99.90
3727;DHT22;1879;45.876;12.300;2022-10-15T00:07:06;15.30;99.90
3727;DHT22;1879;45.876;12.300;2022-10-15T00:09:33;15.30;99.90
3727;DHT22;1879;45.876;12.300;2022-10-15T00:12:00;15.30;99.90
3727;DHT22;1879;45.876;12.300;2022-10-15T00:14:28;15.20;99.90
3727;DHT22;1879;45.876;12.300;2022-10-15T00:16:55;15.20;99.90
3727;DHT22;1879;45.876;12.300;2022-10-15T00:19:22;15.20;99.90
3727;DHT22;1879;45.876;12.300;2022-10-15T00:21:49;15.20;99.90
3727;DHT22;1879;45.876;12.300;2022-10-15T00:24:18;15.10;99.90
3727;DHT22;1879;45.876;12.300;2022-10-15T00:26:45;15.10;99.90
3727;DHT22;1879;45.876;12.300;2022-10-15T00:29:12;15.10;99.90
3727;DHT22;1879;45.876;12.300;2022-10-15T00:31:39;15.10;99.90
3727;DHT22;1879;45.876;12.300;2022-10-15T00:34:06;15.00;99.90
3727;DHT22;1879;45.876;12.300;2022-10-15T00:36:34;15.00;99.90
3727;DHT22;1879;45.876;12.300;2022-10-15T00:39:03;15.10;99.90
3727;DHT22;1879;45.876;12.300;2022-10-15T00:41:34;15.10;99.90
3727;DHT22;1879;45.876;12.300;2022-10-15T00:46:44;15.20;99.90
3727;DHT22;1879;45.876;12.300;2022-10-15T00:49:19;15.20;99.90
3727;DHT22;1879;45.876;12.300;2022-10-15T00:51:54;15.10;99.90
3727;DHT22;1879;45.876;12.300;2022-10-15T00:54:22;15.20;99.90
3727;DHT22;1879;45.876;12.300;2022-10-15T00:56:53;15.20;99.90
3727;DHT22;1879;45.876;12.300;2022-10-15T00:59:23;15.20;99.90
3727;DHT22;1879;45.876;12.300;2022-10-15T01:01:51;15.20;99.90
3727;DHT22;1879;45.876;12.300;2022-10-15T01:04:19;15.20;99.90
3727;DHT22;1879;45.876;12.300;2022-10-15T01:06:46;15.20;99.90
3727;DHT22;1879;45.876;12.300;2022-10-15T01:09:14;15.30;99.90
3727;DHT22;1879;45.876;12.300;2022-10-15T01:11:43;15.30;99.90
3727;DHT22;1879;45.876;12.300;2022-10-15T01:14:24;15.30;99.90
3727;DHT22;1879;45.876;12.300;2022-10-15T01:16:57;15.40;99.90
3727;DHT22;1879;45.876;12.300;2022-10-15T01:19:36;15.50;99.90
3727;DHT22;1879;45.876;12.300;2022-10-15T01:22:12;15.40;99.90
3727;DHT22;1879;45.876;12.300;2022-10-15T01:24:55;15.50;99.90
3727;DHT22;1879;45.876;12.300;2022-10-15T01:27:31;15.50;99.90
3727;DHT22;1879;45.876;12.300;2022-10-15T01:30:25;15.50;99.90
3727;DHT22;1879;45.876;12.300;2022-10-15T01:35:51;15.50;99.90
3727;DHT22;1879;45.876;12.300;2022-10-15T01:38:29;15.50;99.90
3727;DHT22;1879;45.876;12.300;2022-10-15T01:41:02;15.40;99.90
3727;DHT22;1879;45.876;12.300;2022-10-15T01:43:35;15.50;99.90
3727;DHT22;1879;45.876;12.300;2022-10-15T01:46:07;15.50;99.90
3727;DHT22;1879;45.876;12.300;2022-10-15T01:48:37;15.50;99.90
3727;DHT22;1879;45.876;12.300;2022-10-15T01:51:06;15.50;99.90
3727;DHT22;1879;45.876;12.300;2022-10-15T01:53:34;15.50;99.90
3727;DHT22;1879;45.876;12.300;2022-10-15T01:56:05;15.50;99.90
3727;DHT22;1879;45.876;12.300;2022-10-15T01:58:35;15.50;99.90
3727;DHT22;1879;45.876;12.300;2022-10-15T02:01:05;15.40;99.90
3727;DHT22;1879;45.876;12.300;2022-10-15T02:03:43;15.50;99.90
3727;DHT22;1879;45.876;12.300;2022-10-15T02:06:13;15.50;99.90
3727;DHT22;1879;45.876;12.300;2022-10-15T02:08:47;15.50;99.90
3727;DHT22;1879;45.876;12.300;2022-10-15T02:11:15;15.50;99.90
3727;DHT22;1879;45.876;12.300;2022-10-15T02:13:50;15.60;99.90
3727;DHT22;1879;45.876;12.300;2022-10-15T02:16:24;15.60;99.90
3727;DHT22;1879;45.876;12.300;2022-10-15T02:18:58;15.70;99.90
3727;DHT22;1879;45.876;12.300;2022-10-15T02:21:30;15.70;99.90
3727;DHT22;1879;45.876;12.300;2022-10-15T02:24:05;15.60;99.90
3727;DHT22;1879;45.876;12.300;2022-10-15T02:26:34;15.60;99.90
3727;DHT22;1879;45.876;12.300;2022-10-15T02:29:04;15.60;99.90
3727;DHT22;1879;45.876;12.300;2022-10-15T02:31:35;15.60;99.90
3727;DHT22;1879;45.876;12.300;2022-10-15T02:34:05;15.60;99.90
3727;DHT22;1879;45.876;12.300;2022-10-15T02:36:34;15.60;99.90
3727;DHT22;1879;45.876;12.300;2022-10-15T02:39:02;15.60;99.90
3727;DHT22;1879;45.876;12.300;2022-10-15T02:41:33;15.60;99.90
3727;DHT22;1879;45.876;12.300;2022-10-15T02:44:01;15.60;99.90
3727;DHT22;1879;45.876;12.300;2022-10-15T02:46:28;15.60;99.90
3727;DHT22;1879;45.876;12.300;2022-10-15T02:48:56;15.60;99.90
3727;DHT22;1879;45.876;12.300;2022-10-15T02:51:23;15.60;99.90
3727;DHT22;1879;45.876;12.300;2022-10-15T02:53:50;15.60;99.90
3727;DHT22;1879;45.876;12.300;2022-10-15T02:56:17;15.60;99.90
3727;DHT22;1879;45.876;12.300;2022-10-15T02:58:44;15.60;99.90
3727;DHT22;1879;45.876;12.300;2022-10-15T03:01:11;15.50;99.90
3727;DHT22;1879;45.876;12.300;2022-10-15T03:03:38;15.50;99.90
3727;DHT22;1879;45.876;12.300;2022-10-15T03:06:07;15.60;99.90
3727;DHT22;1879;45.876;12.300;2022-10-15T03:08:34;15.60;99.90
3727;DHT22;1879;45.876;12.300;2022-10-15T03:11:01;15.60;99.90
3727;DHT22;1879;45.876;12.300;2022-10-15T03:13:28;15.60;99.90
3727;DHT22;1879;45.876;12.300;2022-10-15T03:15:55;15.60;99.90
3727;DHT22;1879;45.876;12.300;2022-10-15T03:18:22;15.70;99.90
3727;DHT22;1879;45.876;12.300;2022-10-15T03:20:52;15.70;99.90
3727;DHT22;1879;45.876;12.300;2022-10-15T03:23:21;15.70;99.90
3727;DHT22;1879;45.876;12.300;2022-10-15T03:25:48;15.70;99.90
3727;DHT22;1879;45.876;12.300;2022-10-15T03:28:17;15.80;99.90
3727;DHT22;1879;45.876;12.300;2022-10-15T03:30:44;15.80;99.90
3727;DHT22;1879;45.876;12.300;2022-10-15T03:33:11;15.90;99.90
3727;DHT22;1879;45.876;12.300;2022-10-15T03:35:39;15.90;99.90
3727;DHT22;1879;45.876;12.300;2022-10-15T03:38:06;15.90;99.90
3727;DHT22;1879;45.876;12.300;2022-10-15T03:40:35;15.90;99.90
3727;DHT22;1879;45.876;12.300;2022-10-15T03:43:02;16.00;99.90
3727;DHT22;1879;45.876;12.300;2022-10-15T03:45:29;16.00;99.90
3727;DHT22;1879;45.876;12.300;2022-10-15T03:47:56;16.00;99.90
3727;DHT22;1879;45.876;12.300;2022-10-15T03:50:23;16.00;99.90
3727;DHT22;1879;45.876;12.300;2022-10-15T03:52:50;16.00;99.90
3727;DHT22;1879;45.876;12.300;2022-10-15T03:55:17;16.00;99.90
3727;DHT22;1879;45.876;12.300;2022-10-15T03:57:45;16.00;99.90
3727;DHT22;1879;45.876;12.300;2022-10-15T04:00:13;15.90;99.90
3727;DHT22;1879;45.876;12.300;2022-10-15T04:02:41;15.90;99.90
3727;DHT22;1879;45.876;12.300;2022-10-15T04:05:08;15.90;99.90
3727;DHT22;1879;45.876;12.300;2022-10-15T04:07:35;15.80;99.90
3727;DHT22;1879;45.876;12.300;2022-10-15T04:10:02;15.80;99.90
3727;DHT22;1879;45.876;12.300;2022-10-15T04:12:29;15.70;99.90
3727;DHT22;1879;45.876;12.300;2022-10-15T04:14:57;15.80;99.90
3727;DHT22;1879;45.876;12.300;2022-10-15T04:17:25;15.80;99.90
3727;DHT22;1879;45.876;12.300;2022-10-15T04:19:52;15.80;99.90
3727;DHT22;1879;45.876;12.300;2022-10-15T04:22:19;15.80;99.90
3727;DHT22;1879;45.876;12.300;2022-10-15T04:24:46;15.80;99.90
3727;DHT22;1879;45.876;12.300;2022-10-15T04:27:13;15.70;99.90
3727;DHT22;1879;45.876;12.300;2022-10-15T04:29:40;15.70;99.90
3727;DHT22;1879;45.876;12.300;2022-10-15T04:32:11;15.70;99.90
3727;DHT22;1879;45.876;12.300;2022-10-15T04:34:38;15.60;99.90
3727;DHT22;1879;45.876;12.300;2022-10-15T04:37:05;15.60;99.90
3727;DHT22;1879;45.876;12.300;2022-10-15T04:39:32;15.60;99.90
3727;DHT22;1879;45.876;12.300;2022-10-15T04:41:59;15.60;99.90
3727;DHT22;1879;45.876;12.300;2022-10-15T04:44:26;15.60;99.90
3727;DHT22;1879;45.876;12.300;2022-10-15T04:46:53;15.60;99.90
3727;DHT22;1879;45.876;12.300;2022-10-15T04:49:22;15.60;99.90
3727;DHT22;1879;45.876;12.300;2022-10-15T04:51:49;15.60;99.90
3727;DHT22;1879;45.876;12.300;2022-10-15T04:54:16;15.60;99.90
3727;DHT22;1879;45.876;12.300;2022-10-15T04:56:43;15.60;99.90
3727;DHT22;1879;45.876;12.300;2022-10-15T04:59:10;15.60;99.90
3727;DHT22;1879;45.876;12.300;2022-10-15T05:01:37;15.60;99.90
3727;DHT22;1879;45.876;12.300;2022-10-15T05:04:04;15.60;99.90
3727;DHT22;1879;45.876;12.300;2022-10-15T05:06:33;15.60;99.90
3727;DHT22;1879;45.876;12.300;2022-10-15T05:09:00;15.60;99.90
3727;DHT22;1879;45.876;12.300;2022-10-15T05:11:28;15.50;99.90
3727;DHT22;1879;45.876;12.300;2022-10-15T05:13:56;15.40;99.90
3727;DHT22;1879;45.876;12.300;2022-10-15T05:16:24;15.30;99.90
3727;DHT22;1879;45.876;12.300;2022-10-15T05:18:55;15.30;99.90
3727;DHT22;1879;45.876;12.300;2022-10-15T05:21:23;15.30;99.90
3727;DHT22;1879;45.876;12.300;2022-10-15T05:23:51;15.20;99.90
3727;DHT22;1879;45.876;12.300;2022-10-15T05:26:20;15.20;99.90
3727;DHT22;1879;45.876;12.300;2022-10-15T05:28:47;15.20;99.90
3727;DHT22;1879;45.876;12.300;2022-10-15T05:31:16;15.20;99.90
3727;DHT22;1879;45.876;12.300;2022-10-15T05:33:44;15.20;99.90
3727;DHT22;1879;45.876;12.300;2022-10-15T05:36:12;15.10;99.90
3727;DHT22;1879;45.876;12.300;2022-10-15T05:38:39;15.10;99.90
3727;DHT22;1879;45.876;12.300;2022-10-15T05:41:07;15.00;99.90
3727;DHT22;1879;45.876;12.300;2022-10-15T05:43:35;15.00;99.90
3727;DHT22;1879;45.876;12.300;2022-10-15T05:46:02;15.00;99.90
3727;DHT22;1879;45.876;12.300;2022-10-15T05:48:30;14.90;99.90
3727;DHT22;1879;45.876;12.300;2022-10-15T05:51:00;14.90;99.90
3727;DHT22;1879;45.876;12.300;2022-10-15T05:53:27;14.90;99.90
3727;DHT22;1879;45.876;12.300;2022-10-15T05:55:54;14.90;99.90
3727;DHT22;1879;45.876;12.300;2022-10-15T05:58:25;14.80;99.90
3727;DHT22;1879;45.876;12.300;2022-10-15T06:00:53;14.70;99.90
3727;DHT22;1879;45.876;12.300;2022-10-15T06:03:20;14.80;99.90
3727;DHT22;1879;45.876;12.300;2022-10-15T06:05:47;14.80;99.90
3727;DHT22;1879;45.876;12.300;2022-10-15T06:08:14;14.80;99.90
3727;DHT22;1879;45.876;12.300;2022-10-15T06:10:42;14.80;99.90
3727;DHT22;1879;45.876;12.300;2022-10-15T06:13:09;14.80;99.90
3727;DHT22;1879;45.876;12.300;2022-10-15T06:15:40;14.80;99.90
3727;DHT22;1879;45.876;12.300;2022-10-15T06:18:07;14.90;99.90
3727;DHT22;1879;45.876;12.300;2022-10-15T06:20:34;15.00;99.90
3727;DHT22;1879;45.876;12.300;2022-10-15T06:23:02;15.10;99.90
3727;DHT22;1879;45.876;12.300;2022-10-15T06:25:30;15.20;99.90
3727;DHT22;1879;45.876;12.300;2022-10-15T06:28:00;15.30;99.90
3727;DHT22;1879;45.876;12.300;2022-10-15T06:30:28;15.30;99.90
3727;DHT22;1879;45.876;12.300;2022-10-15T06:32:57;15.40;99.90
3727;DHT22;1879;45.876;12.300;2022-10-15T06:35:24;15.50;99.90
3727;DHT22;1879;45.876;12.300;2022-10-15T06:37:54;15.50;99.90
3727;DHT22;1879;45.876;12.300;2022-10-15T06:40:22;15.50;99.90
3727;DHT22;1879;45.876;12.300;2022-10-15T06:42:49;15.50;99.90
3727;DHT22;1879;45.876;12.300;2022-10-15T06:45:16;15.50;99.90
3727;DHT22;1879;45.876;12.300;2022-10-15T06:47:43;15.40;99.90
3727;DHT22;1879;45.876;12.300;2022-10-15T06:50:11;15.40;99.90
3727;DHT22;1879;45.876;12.300;2022-10-15T06:52:38;15.50;99.90
3727;DHT22;1879;45.876;12.300;2022-10-15T06:55:06;15.50;99.90
3727;DHT22;1879;45.876;12.300;2022-10-15T06:57:33;15.60;99.90
3727;DHT22;1879;45.876;12.300;2022-10-15T07:00:00;15.70;99.90
3727;DHT22;1879;45.876;12.300;2022-10-15T07:02:27;15.80;99.90
3727;DHT22;1879;45.876;12.300;2022-10-15T07:04:54;15.90;99.90
3727;DHT22;1879;45.876;12.300;2022-10-15T07:07:23;15.90;99.90
3727;DHT22;1879;45.876;12.300;2022-10-15T07:09:50;16.00;99.90
3727;DHT22;1879;45.876;12.300;2022-10-15T07:12:18;16.10;99.90
3727;DHT22;1879;45.876;12.300;2022-10-15T07:14:46;16.20;99.90
3727;DHT22;1879;45.876;12.300;2022-10-15T07:17:14;16.20;99.90
3727;DHT22;1879;45.876;12.300;2022-10-15T07:19:41;16.30;99.90
3727;DHT22;1879;45.876;12.300;2022-10-15T07:22:09;16.40;99.90
3727;DHT22;1879;45.876;12.300;2022-10-15T07:24:37;16.50;99.90
3727;DHT22;1879;45.876;12.300;2022-10-15T07:27:04;16.70;99.90
3727;DHT22;1879;45.876;12.300;2022-10-15T07:29:31;16.80;99.90
3727;DHT22;1879;45.876;12.300;2022-10-15T07:31:58;17.00;99.90
3727;DHT22;1879;45.876;12.300;2022-10-15T07:34:25;17.10;99.90
3727;DHT22;1879;45.876;12.300;2022-10-15T07:36:52;17.30;99.90
3727;DHT22;1879;45.876;12.300;2022-10-15T07:39:19;17.50;99.90
3727;DHT22;1879;45.876;12.300;2022-10-15T07:41:48;17.70;99.90
3727;DHT22;1879;45.876;12.300;2022-10-15T07:44:15;17.90;99.90
3727;DHT22;1879;45.876;12.300;2022-10-15T07:46:42;18.10;99.90
3727;DHT22;1879;45.876;12.300;2022-10-15T07:49:09;18.30;99.90
3727;DHT22;1879;45.876;12.300;2022-10-15T07:51:36;18.40;99.90
3727;DHT22;1879;45.876;12.300;2022-10-15T07:54:03;18.40;99.90
3727;DHT22;1879;45.876;12.300;2022-10-15T07:56:30;18.50;99.90
3727;DHT22;1879;45.876;12.300;2022-10-15T07:58:59;18.50;99.90
3727;DHT22;1879;45.876;12.300;2022-10-15T08:01:26;18.40;99.90
3727;DHT22;1879;45.876;12.300;2022-10-15T08:03:53;18.30;99.90
3727;DHT22;1879;45.876;12.300;2022-10-15T08:06:20;18.30;99.90
3727;DHT22;1879;45.876;12.300;2022-10-15T08:08:47;18.40;99.90
3727;DHT22;1879;45.876;12.300;2022-10-15T08:11:15;18.50;99.90
3727;DHT22;1879;45.876;12.300;2022-10-15T08:13:43;18.60;99.90
3727;DHT22;1879;45.876;12.300;2022-10-15T08:16:14;18.70;99.90
3727;DHT22;1879;45.876;12.300;2022-10-15T08:18:44;18.80;99.90
3727;DHT22;1879;45.876;12.300;2022-10-15T08:21:11;18.90;99.90
3727;DHT22;1879;45.876;12.300;2022-10-15T08:23:38;19.00;99.90
3727;DHT22;1879;45.876;12.300;2022-10-15T08:26:05;19.00;99.90
3727;DHT22;1879;45.876;12.300;2022-10-15T08:28:34;18.90;99.90
3727;DHT22;1879;45.876;12.300;2022-10-15T08:31:01;18.80;99.90
3727;DHT22;1879;45.876;12.300;2022-10-15T08:33:30;18.70;99.90
3727;DHT22;1879;45.876;12.300;2022-10-15T08:35:57;18.70;99.90
3727;DHT22;1879;45.876;12.300;2022-10-15T08:38:24;18.60;99.90
3727;DHT22;1879;45.876;12.300;2022-10-15T08:40:54;18.60;99.90
3727;DHT22;1879;45.876;12.300;2022-10-15T08:43:24;18.60;99.90
3727;DHT22;1879;45.876;12.300;2022-10-15T08:45:56;18.70;99.90
3727;DHT22;1879;45.876;12.300;2022-10-15T08:48:28;18.80;99.90
3727;DHT22;1879;45.876;12.300;2022-10-15T08:51:00;19.10;99.90
3727;DHT22;1879;45.876;12.300;2022-10-15T08:53:29;19.20;99.90
3727;DHT22;1879;45.876;12.300;2022-10-15T08:56:07;19.40;99.90
3727;DHT22;1879;45.876;12.300;2022-10-15T08:58:45;19.60;99.90
3727;DHT22;1879;45.876;12.300;2022-10-15T09:01:21;19.70;99.90
3727;DHT22;1879;45.876;12.300;2022-10-15T09:03:55;19.80;99.90
3727;DHT22;1879;45.876;12.300;2022-10-15T09:06:32;19.90;99.90
3727;DHT22;1879;45.876;12.300;2022-10-15T09:09:07;20.00;99.90
3727;DHT22;1879;45.876;12.300;2022-10-15T09:11:45;20.10;99.90
3727;DHT22;1879;45.876;12.300;2022-10-15T09:14:16;20.10;99.90
3727;DHT22;1879;45.876;12.300;2022-10-15T09:16:47;20.20;99.90
3727;DHT22;1879;45.876;12.300;2022-10-15T09:19:17;20.10;99.90
3727;DHT22;1879;45.876;12.300;2022-10-15T09:21:47;20.10;99.90
3727;DHT22;1879;45.876;12.300;2022-10-15T09:24:19;20.10;99.90
3727;DHT22;1879;45.876;12.300;2022-10-15T09:26:54;20.20;99.90
3727;DHT22;1879;45.876;12.300;2022-10-15T09:29:26;20.30;99.90
3727;DHT22;1879;45.876;12.300;2022-10-15T09:32:02;20.30;99.90
3727;DHT22;1879;45.876;12.300;2022-10-15T09:34:36;20.40;99.90
3727;DHT22;1879;45.876;12.300;2022-10-15T09:37:13;20.50;99.90
3727;DHT22;1879;45.876;12.300;2022-10-15T09:39:53;20.60;99.90
3727;DHT22;1879;45.876;12.300;2022-10-15T09:42:27;20.70;99.90
3727;DHT22;1879;45.876;12.300;2022-10-15T09:44:58;20.90;99.90
3727;DHT22;1879;45.876;12.300;2022-10-15T09:47:28;20.90;99.90
3727;DHT22;1879;45.876;12.300;2022-10-15T09:49:57;21.00;99.90
3727;DHT22;1879;45.876;12.300;2022-10-15T09:52:37;21.10;99.90
3727;DHT22;1879;45.876;12.300;2022-10-15T09:55:17;21.20;99.90
3727;DHT22;1879;45.876;12.300;2022-10-15T09:57:51;21.30;99.90
3727;DHT22;1879;45.876;12.300;2022-10-15T10:00:19;21.30;99.30
3727;DHT22;1879;45.876;12.300;2022-10-15T10:03:02;21.40;99.20
3727;DHT22;1879;45.876;12.300;2022-10-15T10:05:32;21.40;98.20
3727;DHT22;1879;45.876;12.300;2022-10-15T10:08:16;21.60;98.70
3727;DHT22;1879;45.876;12.300;2022-10-15T10:10:45;21.70;98.50
3727;DHT22;1879;45.876;12.300;2022-10-15T10:13:22;21.90;99.00
3727;DHT22;1879;45.876;12.300;2022-10-15T10:15:52;22.10;98.10
3727;DHT22;1879;45.876;12.300;2022-10-15T10:18:21;22.20;97.30
3727;DHT22;1879;45.876;12.300;2022-10-15T10:20:54;22.30;97.00
3727;DHT22;1879;45.876;12.300;2022-10-15T10:23:29;22.20;96.80
3727;DHT22;1879;45.876;12.300;2022-10-15T10:26:00;22.30;96.70
3727;DHT22;1879;45.876;12.300;2022-10-15T10:28:31;22.40;96.00
3727;DHT22;1879;45.876;12.300;2022-10-15T10:31:04;22.50;95.80
3727;DHT22;1879;45.876;12.300;2022-10-15T10:33:35;22.50;96.40
3727;DHT22;1879;45.876;12.300;2022-10-15T10:36:05;22.60;96.20
3727;DHT22;1879;45.876;12.300;2022-10-15T10:38:36;22.60;95.70
3727;DHT22;1879;45.876;12.300;2022-10-15T10:41:05;22.70;95.80
3727;DHT22;1879;45.876;12.300;2022-10-15T10:43:35;22.70;95.70
3727;DHT22;1879;45.876;12.300;2022-10-15T10:46:04;22.80;95.60
3727;DHT22;1879;45.876;12.300;2022-10-15T10:48:39;22.90;95.10
3727;DHT22;1879;45.876;12.300;2022-10-15T10:51:11;23.00;94.60
3727;DHT22;1879;45.876;12.300;2022-10-15T10:53:51;23.10;94.60
3727;DHT22;1879;45.876;12.300;2022-10-15T10:56:22;23.10;94.20
3727;DHT22;1879;45.876;12.300;2022-10-15T10:58:57;23.20;94.50
3727;DHT22;1879;45.876;12.300;2022-10-15T11:01:25;23.10;94.00
3727;DHT22;1879;45.876;12.300;2022-10-15T11:03:53;23.10;93.80
3727;DHT22;1879;45.876;12.300;2022-10-15T11:06:39;23.50;93.50
3727;DHT22;1879;45.876;12.300;2022-10-15T11:12:09;25.10;92.00
3727;DHT22;1879;45.876;12.300;2022-10-15T11:14:45;25.80;90.20
3727;DHT22;1879;45.876;12.300;2022-10-15T11:17:21;26.40;88.80
3727;DHT22;1879;45.876;12.300;2022-10-15T11:19:54;27.10;88.60
3727;DHT22;1879;45.876;12.300;2022-10-15T11:22:42;27.70;86.10
3727;DHT22;1879;45.876;12.300;2022-10-15T11:25:21;28.00;81.30
3727;DHT22;1879;45.876;12.300;2022-10-15T11:28:11;28.50;79.10
3727;DHT22;1879;45.876;12.300;2022-10-15T11:30:49;28.80;77.00
3727;DHT22;1879;45.876;12.300;2022-10-15T11:33:39;29.20;76.20
3727;DHT22;1879;45.876;12.300;2022-10-15T11:36:22;29.90;74.90
3727;DHT22;1879;45.876;12.300;2022-10-15T11:39:02;30.20;70.10
3727;DHT22;1879;45.876;12.300;2022-10-15T11:41:38;29.90;67.80
3727;DHT22;1879;45.876;12.300;2022-10-15T11:44:23;30.20;68.50
3727;DHT22;1879;45.876;12.300;2022-10-15T11:47:03;30.20;65.50
3727;DHT22;1879;45.876;12.300;2022-10-15T11:49:41;30.00;65.40
3727;DHT22;1879;45.876;12.300;2022-10-15T11:52:21;29.80;66.50
3727;DHT22;1879;45.876;12.300;2022-10-15T11:54:59;30.30;65.60
3727;DHT22;1879;45.876;12.300;2022-10-15T11:57:31;30.00;64.30
3727;DHT22;1879;45.876;12.300;2022-10-15T12:00:02;29.70;65.40
3727;DHT22;1879;45.876;12.300;2022-10-15T12:02:34;30.50;64.40
3727;DHT22;1879;45.876;12.300;2022-10-15T12:05:06;31.40;63.00
3727;DHT22;1879;45.876;12.300;2022-10-15T12:07:36;31.60;61.60
3727;DHT22;1879;45.876;12.300;2022-10-15T12:10:20;31.30;60.70
3727;DHT22;1879;45.876;12.300;2022-10-15T12:13:01;31.20;60.20
3727;DHT22;1879;45.876;12.300;2022-10-15T12:15:37;29.90;61.40
3727;DHT22;1879;45.876;12.300;2022-10-15T12:18:12;29.20;63.30
3727;DHT22;1879;45.876;12.300;2022-10-15T12:20:44;30.00;63.60
3727;DHT22;1879;45.876;12.300;2022-10-15T12:23:22;31.20;63.70
3727;DHT22;1879;45.876;12.300;2022-10-15T12:25:50;32.10;59.50
3727;DHT22;1879;45.876;12.300;2022-10-15T12:28:21;32.80;60.50
3727;DHT22;1879;45.876;12.300;2022-10-15T12:30:57;33.40;58.20
3727;DHT22;1879;45.876;12.300;2022-10-15T12:33:36;33.90;57.10
3727;DHT22;1879;45.876;12.300;2022-10-15T12:36:06;34.30;55.70
3727;DHT22;1879;45.876;12.300;2022-10-15T12:38:36;34.40;56.60
3727;DHT22;1879;45.876;12.300;2022-10-15T12:41:06;34.60;56.20
3727;DHT22;1879;45.876;12.300;2022-10-15T12:43:38;34.30;54.60
3727;DHT22;1879;45.876;12.300;2022-10-15T12:46:08;34.20;54.20
3727;DHT22;1879;45.876;12.300;2022-10-15T12:48:38;33.60;53.60
3727;DHT22;1879;45.876;12.300;2022-10-15T12:51:36;33.10;53.40
3727;DHT22;1879;45.876;12.300;2022-10-15T13:00:32;33.80;54.00
3727;DHT22;1879;45.876;12.300;2022-10-15T13:03:31;33.50;52.00
3727;DHT22;1879;45.876;12.300;2022-10-15T13:06:24;33.10;54.80
3727;DHT22;1879;45.876;12.300;2022-10-15T13:08:54;32.50;57.10
3727;DHT22;1879;45.876;12.300;2022-10-15T13:11:26;32.10;57.60
3727;DHT22;1879;45.876;12.300;2022-10-15T13:13:58;31.80;58.30
3727;DHT22;1879;45.876;12.300;2022-10-15T13:16:28;31.90;59.20
3727;DHT22;1879;45.876;12.300;2022-10-15T13:18:56;31.90;58.10
3727;DHT22;1879;45.876;12.300;2022-10-15T13:21:45;31.70;56.10
3727;DHT22;1879;45.876;12.300;2022-10-15T13:24:15;32.00;56.10
3727;DHT22;1879;45.876;12.300;2022-10-15T13:26:43;32.00;56.40
3727;DHT22;1879;45.876;12.300;2022-10-15T13:29:14;31.60;56.50
3727;DHT22;1879;45.876;12.300;2022-10-15T13:31:44;31.30;56.70
3727;DHT22;1879;45.876;12.300;2022-10-15T13:34:19;30.60;56.00
3727;DHT22;1879;45.876;12.300;2022-10-15T13:36:47;29.50;57.20
3727;DHT22;1879;45.876;12.300;2022-10-15T13:39:34;28.60;58.00
3727;DHT22;1879;45.876;12.300;2022-10-15T13:42:08;28.40;59.30
3727;DHT22;1879;45.876;12.300;2022-10-15T13:44:35;29.10;59.10
3727;DHT22;1879;45.876;12.300;2022-10-15T13:47:18;29.80;58.40
3727;DHT22;1879;45.876;12.300;2022-10-15T13:49:49;30.40;57.50
3727;DHT22;1879;45.876;12.300;2022-10-15T13:52:16;30.80;57.20
3727;DHT22;1879;45.876;12.300;2022-10-15T13:54:44;31.10;57.50
3727;DHT22;1879;45.876;12.300;2022-10-15T13:57:14;31.20;57.20
3727;DHT22;1879;45.876;12.300;2022-10-15T13:59:44;31.00;56.70
3727;DHT22;1879;45.876;12.300;2022-10-15T14:02:19;30.50;56.80
3727;DHT22;1879;45.876;12.300;2022-10-15T14:04:46;29.80;57.60
3727;DHT22;1879;45.876;12.300;2022-10-15T14:07:21;29.10;58.00
3727;DHT22;1879;45.876;12.300;2022-10-15T14:09:48;28.30;58.80
3727;DHT22;1879;45.876;12.300;2022-10-15T14:14:44;26.60;61.00
3727;DHT22;1879;45.876;12.300;2022-10-15T14:17:23;26.60;61.50
3727;DHT22;1879;45.876;12.300;2022-10-15T14:19:54;26.40;63.20
3727;DHT22;1879;45.876;12.300;2022-10-15T14:22:23;26.20;63.50
3727;DHT22;1879;45.876;12.300;2022-10-15T14:24:53;26.20;65.10
3727;DHT22;1879;45.876;12.300;2022-10-15T14:27:22;26.00;65.20
3727;DHT22;1879;45.876;12.300;2022-10-15T14:29:50;25.90;66.20
3727;DHT22;1879;45.876;12.300;2022-10-15T14:32:22;25.90;66.10
3727;DHT22;1879;45.876;12.300;2022-10-15T14:34:50;25.90;66.40
3727;DHT22;1879;45.876;12.300;2022-10-15T14:37:39;25.90;67.30
3727;DHT22;1879;45.876;12.300;2022-10-15T14:40:17;25.80;69.00
3727;DHT22;1879;45.876;12.300;2022-10-15T14:42:47;25.90;69.10
3727;DHT22;1879;45.876;12.300;2022-10-15T14:45:20;26.00;69.20
3727;DHT22;1879;45.876;12.300;2022-10-15T14:47:50;25.80;69.10
3727;DHT22;1879;45.876;12.300;2022-10-15T14:50:19;25.60;69.80
3727;DHT22;1879;45.876;12.300;2022-10-15T14:52:48;25.50;69.10
3727;DHT22;1879;45.876;12.300;2022-10-15T14:55:27;25.30;69.60
3727;DHT22;1879;45.876;12.300;2022-10-15T14:57:59;25.10;71.10
3727;DHT22;1879;45.876;12.300;2022-10-15T15:00:31;24.90;71.80
3727;DHT22;1879;45.876;12.300;2022-10-15T15:03:02;24.80;72.30
3727;DHT22;1879;45.876;12.300;2022-10-15T15:05:30;24.60;72.30
3727;DHT22;1879;45.876;12.300;2022-10-15T15:08:09;24.50;73.10
3727;DHT22;1879;45.876;12.300;2022-10-15T15:10:36;24.30;73.90
3727;DHT22;1879;45.876;12.300;2022-10-15T15:13:03;24.10;74.10
3727;DHT22;1879;45.876;12.300;2022-10-15T15:15:30;24.00;75.30
3727;DHT22;1879;45.876;12.300;2022-10-15T15:17:58;23.80;76.00
3727;DHT22;1879;45.876;12.300;2022-10-15T15:20:25;23.70;76.50
3727;DHT22;1879;45.876;12.300;2022-10-15T15:22:54;23.70;76.90
3727;DHT22;1879;45.876;12.300;2022-10-15T15:25:31;23.60;76.40
3727;DHT22;1879;45.876;12.300;2022-10-15T15:27:58;23.60;78.70
3727;DHT22;1879;45.876;12.300;2022-10-15T15:30:28;23.60;80.00
3727;DHT22;1879;45.876;12.300;2022-10-15T15:32:56;23.60;79.10
3727;DHT22;1879;45.876;12.300;2022-10-15T15:35:32;23.50;80.00
3727;DHT22;1879;45.876;12.300;2022-10-15T15:38:01;23.40;80.60
3727;DHT22;1879;45.876;12.300;2022-10-15T15:40:28;23.40;80.20
3727;DHT22;1879;45.876;12.300;2022-10-15T15:42:56;23.30;80.10
3727;DHT22;1879;45.876;12.300;2022-10-15T15:45:24;23.30;80.50
3727;DHT22;1879;45.876;12.300;2022-10-15T15:47:52;23.20;81.90
3727;DHT22;1879;45.876;12.300;2022-10-15T15:50:20;23.10;82.20
3727;DHT22;1879;45.876;12.300;2022-10-15T15:52:49;23.00;82.80
3727;DHT22;1879;45.876;12.300;2022-10-15T15:55:16;22.90;82.90
3727;DHT22;1879;45.876;12.300;2022-10-15T15:57:43;22.80;84.00
3727;DHT22;1879;45.876;12.300;2022-10-15T16:00:11;22.70;85.30
3727;DHT22;1879;45.876;12.300;2022-10-15T16:02:39;22.50;86.10
3727;DHT22;1879;45.876;12.300;2022-10-15T16:05:07;22.50;87.10
3727;DHT22;1879;45.876;12.300;2022-10-15T16:07:35;22.40;88.30
3727;DHT22;1879;45.876;12.300;2022-10-15T16:10:04;22.30;89.50
3727;DHT22;1879;45.876;12.300;2022-10-15T16:12:36;22.10;90.50
3727;DHT22;1879;45.876;12.300;2022-10-15T16:15:03;22.00;91.00
3727;DHT22;1879;45.876;12.300;2022-10-15T16:17:31;21.80;91.70
3727;DHT22;1879;45.876;12.300;2022-10-15T16:19:58;21.70;92.20
3727;DHT22;1879;45.876;12.300;2022-10-15T16:22:25;21.60;92.90
3727;DHT22;1879;45.876;12.300;2022-10-15T16:24:52;21.40;93.40